Terminal Aerodrome Forecast
Issued by NWS

Home | Current Version | Previous Version | Text Only | Print | Product List | Glossary On
Versions: 1 2 3 4 5 6 7 8 9 10 11 12 13 14
000
FTUS41 KPBZ 041120
TAFMGW
TAF
KMGW 041120Z 0412/0512 VRB04KT P6SM BKN050 OVC070
     FM041500 26010G17KT P6SM SCT050
     FM042300 VRB05KT P6SM SKC=

USA.gov is the U.S. government's official web portal to all federal, state and local government web resources and services.